sensor_id;sensor_type;location;lat;lon;timestamp;pressure;altitude;pressure_sealevel;temperature
69186;BMP280;56298;49.246;9.410;2022-12-07T00:01:14;99527.31;;;3.62
69186;BMP280;56298;49.246;9.410;2022-12-07T00:03:41;99518.78;;;3.55
69186;BMP280;56298;49.246;9.410;2022-12-07T00:06:09;99527.91;;;3.59
69186;BMP280;56298;49.246;9.410;2022-12-07T00:08:35;99525.59;;;3.52
69186;BMP280;56298;49.246;9.410;2022-12-07T00:13:31;99528.59;;;3.51
69186;BMP280;56298;49.246;9.410;2022-12-07T00:16:01;99522.97;;;3.47
69186;BMP280;56298;49.246;9.410;2022-12-07T00:18:26;99507.31;;;3.44
69186;BMP280;56298;49.246;9.410;2022-12-07T00:20:52;99512.59;;;3.35
69186;BMP280;56298;49.246;9.410;2022-12-07T00:23:17;99509.59;;;3.23
69186;BMP280;56298;49.246;9.410;2022-12-07T00:25:42;99518.56;;;3.18
69186;BMP280;56298;49.246;9.410;2022-12-07T00:28:07;99507.91;;;3.08
69186;BMP280;56298;49.246;9.410;2022-12-07T00:30:34;99512.56;;;3.02
69186;BMP280;56298;49.246;9.410;2022-12-07T00:32:59;99518.91;;;2.97
69186;BMP280;56298;49.246;9.410;2022-12-07T00:35:25;99515.75;;;2.90
69186;BMP280;56298;49.246;9.410;2022-12-07T00:37:50;99511.50;;;2.84
69186;BMP280;56298;49.246;9.410;2022-12-07T00:40:15;99508.34;;;2.76
69186;BMP280;56298;49.246;9.410;2022-12-07T00:42:40;99516.88;;;2.70
69186;BMP280;56298;49.246;9.410;2022-12-07T00:45:06;99514.81;;;2.61
69186;BMP280;56298;49.246;9.410;2022-12-07T00:47:32;99506.47;;;2.58
69186;BMP280;56298;49.246;9.410;2022-12-07T00:49:57;99510.56;;;2.55
69186;BMP280;56298;49.246;9.410;2022-12-07T00:52:22;99515.22;;;2.49
69186;BMP280;56298;49.246;9.410;2022-12-07T00:54:48;99513.91;;;2.47
69186;BMP280;56298;49.246;9.410;2022-12-07T00:57:13;99513.03;;;2.51
69186;BMP280;56298;49.246;9.410;2022-12-07T00:59:38;99514.06;;;2.56
69186;BMP280;56298;49.246;9.410;2022-12-07T01:02:03;99511.66;;;2.54
69186;BMP280;56298;49.246;9.410;2022-12-07T01:04:28;99514.56;;;2.58
69186;BMP280;56298;49.246;9.410;2022-12-07T01:06:54;99513.47;;;2.59
69186;BMP280;56298;49.246;9.410;2022-12-07T01:09:20;99520.59;;;2.55
69186;BMP280;56298;49.246;9.410;2022-12-07T01:11:45;99505.44;;;2.54
69186;BMP280;56298;49.246;9.410;2022-12-07T01:14:10;99509.81;;;2.49
69186;BMP280;56298;49.246;9.410;2022-12-07T01:16:35;99512.00;;;2.47
69186;BMP280;56298;49.246;9.410;2022-12-07T01:19:01;99512.50;;;2.49
69186;BMP280;56298;49.246;9.410;2022-12-07T01:21:31;99509.00;;;2.49
69186;BMP280;56298;49.246;9.410;2022-12-07T01:24:03;99504.69;;;2.48
69186;BMP280;56298;49.246;9.410;2022-12-07T01:26:29;99504.69;;;2.48
69186;BMP280;56298;49.246;9.410;2022-12-07T01:28:55;99517.25;;;2.38
69186;BMP280;56298;49.246;9.410;2022-12-07T01:31:25;99516.53;;;2.33
69186;BMP280;56298;49.246;9.410;2022-12-07T01:33:52;99519.25;;;2.33
69186;BMP280;56298;49.246;9.410;2022-12-07T01:36:23;99522.06;;;2.42
69186;BMP280;56298;49.246;9.410;2022-12-07T01:38:50;99523.06;;;2.51
69186;BMP280;56298;49.246;9.410;2022-12-07T01:41:17;99522.19;;;2.56
69186;BMP280;56298;49.246;9.410;2022-12-07T01:44:21;99520.97;;;2.67
69186;BMP280;56298;49.246;9.410;2022-12-07T01:46:54;99523.72;;;2.62
69186;BMP280;56298;49.246;9.410;2022-12-07T01:49:26;99514.16;;;2.70
69186;BMP280;56298;49.246;9.410;2022-12-07T01:51:57;99515.03;;;2.65
69186;BMP280;56298;49.246;9.410;2022-12-07T01:54:24;99506.72;;;2.61
69186;BMP280;56298;49.246;9.410;2022-12-07T01:56:53;99514.28;;;2.59
69186;BMP280;56298;49.246;9.410;2022-12-07T01:59:19;99506.91;;;2.65
69186;BMP280;56298;49.246;9.410;2022-12-07T02:01:46;99500.13;;;2.68
69186;BMP280;56298;49.246;9.410;2022-12-07T02:04:12;99491.25;;;2.62
69186;BMP280;56298;49.246;9.410;2022-12-07T02:06:38;99494.03;;;2.57
69186;BMP280;56298;49.246;9.410;2022-12-07T02:09:04;99488.25;;;2.63
69186;BMP280;56298;49.246;9.410;2022-12-07T02:11:29;99481.00;;;2.59
69186;BMP280;56298;49.246;9.410;2022-12-07T02:13:55;99492.63;;;2.59
69186;BMP280;56298;49.246;9.410;2022-12-07T02:19:21;99492.72;;;2.73
69186;BMP280;56298;49.246;9.410;2022-12-07T02:25:08;99491.38;;;2.71
69186;BMP280;56298;49.246;9.410;2022-12-07T02:27:45;99489.19;;;2.73
69186;BMP280;56298;49.246;9.410;2022-12-07T02:30:14;99486.91;;;2.80
69186;BMP280;56298;49.246;9.410;2022-12-07T02:33:06;99486.91;;;2.80
69186;BMP280;56298;49.246;9.410;2022-12-07T02:35:46;99477.91;;;2.85
69186;BMP280;56298;49.246;9.410;2022-12-07T02:38:20;99477.84;;;2.90
69186;BMP280;56298;49.246;9.410;2022-12-07T02:40:54;99481.00;;;2.97
69186;BMP280;56298;49.246;9.410;2022-12-07T02:43:27;99476.91;;;3.00
69186;BMP280;56298;49.246;9.410;2022-12-07T02:45:58;99484.91;;;3.05
69186;BMP280;56298;49.246;9.410;2022-12-07T02:48:26;99480.81;;;3.08
69186;BMP280;56298;49.246;9.410;2022-12-07T02:50:53;99476.41;;;3.12
69186;BMP280;56298;49.246;9.410;2022-12-07T02:53:32;99464.56;;;3.08
69186;BMP280;56298;49.246;9.410;2022-12-07T02:56:17;99449.50;;;3.01
69186;BMP280;56298;49.246;9.410;2022-12-07T03:04:22;99444.69;;;2.98
69186;BMP280;56298;49.246;9.410;2022-12-07T03:07:00;99438.63;;;2.87
69186;BMP280;56298;49.246;9.410;2022-12-07T03:09:35;99435.31;;;2.90
69186;BMP280;56298;49.246;9.410;2022-12-07T03:12:16;99440.38;;;2.97
69186;BMP280;56298;49.246;9.410;2022-12-07T03:14:52;99442.06;;;2.93
69186;BMP280;56298;49.246;9.410;2022-12-07T03:17:25;99453.84;;;2.83
69186;BMP280;56298;49.246;9.410;2022-12-07T03:19:55;99463.44;;;2.75
69186;BMP280;56298;49.246;9.410;2022-12-07T03:22:23;99468.25;;;2.78
69186;BMP280;56298;49.246;9.410;2022-12-07T03:24:54;99458.59;;;2.91
69186;BMP280;56298;49.246;9.410;2022-12-07T03:27:29;99460.81;;;3.03
69186;BMP280;56298;49.246;9.410;2022-12-07T03:30:04;99458.63;;;3.05
69186;BMP280;56298;49.246;9.410;2022-12-07T03:32:46;99467.47;;;3.11
69186;BMP280;56298;49.246;9.410;2022-12-07T03:35:19;99469.00;;;3.17
69186;BMP280;56298;49.246;9.410;2022-12-07T03:37:52;99455.88;;;3.25
69186;BMP280;56298;49.246;9.410;2022-12-07T03:40:27;99456.63;;;3.30
69186;BMP280;56298;49.246;9.410;2022-12-07T03:42:54;99451.84;;;3.22
69186;BMP280;56298;49.246;9.410;2022-12-07T03:45:23;99445.53;;;3.27
69186;BMP280;56298;49.246;9.410;2022-12-07T03:48:05;99450.38;;;3.30
69186;BMP280;56298;49.246;9.410;2022-12-07T03:53:29;99453.16;;;3.39
69186;BMP280;56298;49.246;9.410;2022-12-07T03:55:57;99468.13;;;3.36
69186;BMP280;56298;49.246;9.410;2022-12-07T03:58:23;99468.84;;;3.28
69186;BMP280;56298;49.246;9.410;2022-12-07T04:00:50;99469.22;;;3.35
69186;BMP280;56298;49.246;9.410;2022-12-07T04:03:16;99470.25;;;3.39
69186;BMP280;56298;49.246;9.410;2022-12-07T04:05:42;99457.41;;;3.45
69186;BMP280;56298;49.246;9.410;2022-12-07T04:08:07;99458.53;;;3.44
69186;BMP280;56298;49.246;9.410;2022-12-07T04:10:33;99463.66;;;3.59
69186;BMP280;56298;49.246;9.410;2022-12-07T04:12:58;99457.03;;;3.52
69186;BMP280;56298;49.246;9.410;2022-12-07T04:15:24;99456.22;;;3.51
69186;BMP280;56298;49.246;9.410;2022-12-07T04:17:49;99457.41;;;3.45
69186;BMP280;56298;49.246;9.410;2022-12-07T04:20:14;99461.72;;;3.46
69186;BMP280;56298;49.246;9.410;2022-12-07T04:22:40;99455.63;;;3.54
69186;BMP280;56298;49.246;9.410;2022-12-07T04:25:05;99449.28;;;3.59
69186;BMP280;56298;49.246;9.410;2022-12-07T04:27:30;99459.63;;;3.57
69186;BMP280;56298;49.246;9.410;2022-12-07T04:29:56;99450.88;;;3.60
69186;BMP280;56298;49.246;9.410;2022-12-07T04:32:22;99449.41;;;3.68
69186;BMP280;56298;49.246;9.410;2022-12-07T04:34:48;99452.41;;;3.66
69186;BMP280;56298;49.246;9.410;2022-12-07T04:37:13;99446.69;;;3.68
69186;BMP280;56298;49.246;9.410;2022-12-07T04:39:38;99451.19;;;3.72
69186;BMP280;56298;49.246;9.410;2022-12-07T04:42:04;99444.38;;;3.75
69186;BMP280;56298;49.246;9.410;2022-12-07T04:44:30;99446.69;;;3.82
69186;BMP280;56298;49.246;9.410;2022-12-07T04:46:55;99440.44;;;3.81
69186;BMP280;56298;49.246;9.410;2022-12-07T04:49:22;99439.84;;;3.84
69186;BMP280;56298;49.246;9.410;2022-12-07T04:51:48;99441.44;;;3.85
69186;BMP280;56298;49.246;9.410;2022-12-07T04:54:14;99439.34;;;3.82
69186;BMP280;56298;49.246;9.410;2022-12-07T04:56:40;99443.84;;;3.87
69186;BMP280;56298;49.246;9.410;2022-12-07T04:59:07;99443.84;;;3.87
69186;BMP280;56298;49.246;9.410;2022-12-07T05:01:33;99445.09;;;3.81
69186;BMP280;56298;49.246;9.410;2022-12-07T05:03:58;99443.50;;;3.80
69186;BMP280;56298;49.246;9.410;2022-12-07T05:06:24;99441.88;;;3.79
69186;BMP280;56298;49.246;9.410;2022-12-07T05:08:49;99445.78;;;3.72
69186;BMP280;56298;49.246;9.410;2022-12-07T05:11:14;99446.19;;;3.80
69186;BMP280;56298;49.246;9.410;2022-12-07T05:14:01;99454.84;;;3.82
69186;BMP280;56298;49.246;9.410;2022-12-07T05:16:27;99448.25;;;3.83
69186;BMP280;56298;49.246;9.410;2022-12-07T05:18:52;99447.88;;;3.90
69186;BMP280;56298;49.246;9.410;2022-12-07T05:21:18;99451.19;;;3.87
69186;BMP280;56298;49.246;9.410;2022-12-07T05:23:43;99444.84;;;3.91
69186;BMP280;56298;49.246;9.410;2022-12-07T05:26:08;99448.38;;;3.92
69186;BMP280;56298;49.246;9.410;2022-12-07T05:28:33;99442.66;;;3.93
69186;BMP280;56298;49.246;9.410;2022-12-07T05:30:59;99441.25;;;3.96
69186;BMP280;56298;49.246;9.410;2022-12-07T05:33:24;99443.44;;;3.94
69186;BMP280;56298;49.246;9.410;2022-12-07T05:35:49;99443.06;;;3.87
69186;BMP280;56298;49.246;9.410;2022-12-07T05:38:14;99444.56;;;3.93
69186;BMP280;56298;49.246;9.410;2022-12-07T05:40:40;99439.34;;;3.96
69186;BMP280;56298;49.246;9.410;2022-12-07T05:43:05;99443.66;;;3.97
69186;BMP280;56298;49.246;9.410;2022-12-07T05:45:30;99441.56;;;3.94
69186;BMP280;56298;49.246;9.410;2022-12-07T05:47:55;99439.25;;;3.88
69186;BMP280;56298;49.246;9.410;2022-12-07T05:50:21;99436.44;;;3.79
69186;BMP280;56298;49.246;9.410;2022-12-07T05:52:46;99431.94;;;3.74
69186;BMP280;56298;49.246;9.410;2022-12-07T05:55:11;99433.91;;;3.82
69186;BMP280;56298;49.246;9.410;2022-12-07T05:57:36;99431.00;;;3.79
69186;BMP280;56298;49.246;9.410;2022-12-07T06:00:03;99432.31;;;3.81
69186;BMP280;56298;49.246;9.410;2022-12-07T06:02:28;99414.16;;;3.82
69186;BMP280;56298;49.246;9.410;2022-12-07T06:04:54;99419.63;;;3.91
69186;BMP280;56298;49.246;9.410;2022-12-07T06:07:19;99426.56;;;3.83
69186;BMP280;56298;49.246;9.410;2022-12-07T06:09:44;99427.81;;;3.77
69186;BMP280;56298;49.246;9.410;2022-12-07T06:12:11;99430.81;;;3.75
69186;BMP280;56298;49.246;9.410;2022-12-07T06:14:55;99435.03;;;3.81
69186;BMP280;56298;49.246;9.410;2022-12-07T06:17:20;99431.53;;;3.81
69186;BMP280;56298;49.246;9.410;2022-12-07T06:19:46;99435.53;;;3.83
69186;BMP280;56298;49.246;9.410;2022-12-07T06:22:11;99434.25;;;3.81
69186;BMP280;56298;49.246;9.410;2022-12-07T06:24:38;99437.31;;;3.88
69186;BMP280;56298;49.246;9.410;2022-12-07T06:27:04;99445.25;;;3.84
69186;BMP280;56298;49.246;9.410;2022-12-07T06:29:29;99441.66;;;3.89
69186;BMP280;56298;49.246;9.410;2022-12-07T06:31:55;99449.88;;;3.98
69186;BMP280;56298;49.246;9.410;2022-12-07T06:34:21;99440.75;;;3.94
69186;BMP280;56298;49.246;9.410;2022-12-07T06:36:48;99442.88;;;3.97
69186;BMP280;56298;49.246;9.410;2022-12-07T06:39:17;99443.88;;;4.01
69186;BMP280;56298;49.246;9.410;2022-12-07T06:41:42;99457.13;;;4.03
69186;BMP280;56298;49.246;9.410;2022-12-07T06:44:08;99454.81;;;3.96
69186;BMP280;56298;49.246;9.410;2022-12-07T06:46:33;99454.81;;;3.96
69186;BMP280;56298;49.246;9.410;2022-12-07T06:49:00;99454.31;;;3.94
69186;BMP280;56298;49.246;9.410;2022-12-07T06:51:26;99457.72;;;3.99
69186;BMP280;56298;49.246;9.410;2022-12-07T06:53:51;99458.63;;;3.95
69186;BMP280;56298;49.246;9.410;2022-12-07T06:56:16;99449.28;;;4.01
69186;BMP280;56298;49.246;9.410;2022-12-07T06:58:42;99452.91;;;3.96
69186;BMP280;56298;49.246;9.410;2022-12-07T07:01:11;99459.63;;;3.99
69186;BMP280;56298;49.246;9.410;2022-12-07T07:03:37;99457.13;;;4.03
69186;BMP280;56298;49.246;9.410;2022-12-07T07:06:03;99456.31;;;4.02
69186;BMP280;56298;49.246;9.410;2022-12-07T07:08:29;99451.19;;;4.01
69186;BMP280;56298;49.246;9.410;2022-12-07T07:10:54;99451.09;;;3.92
69186;BMP280;56298;49.246;9.410;2022-12-07T07:13:19;99456.44;;;3.97
69186;BMP280;56298;49.246;9.410;2022-12-07T07:15:44;99454.91;;;3.91
69186;BMP280;56298;49.246;9.410;2022-12-07T07:18:10;99454.91;;;3.91
69186;BMP280;56298;49.246;9.410;2022-12-07T07:20:36;99459.25;;;3.92
69186;BMP280;56298;49.246;9.410;2022-12-07T07:23:02;99459.03;;;4.02
69186;BMP280;56298;49.246;9.410;2022-12-07T07:25:27;99457.44;;;4.01
69186;BMP280;56298;49.246;9.410;2022-12-07T07:27:52;99453.00;;;3.91
69186;BMP280;56298;49.246;9.410;2022-12-07T07:30:18;99457.44;;;4.01
69186;BMP280;56298;49.246;9.410;2022-12-07T07:32:43;99458.75;;;4.04
69186;BMP280;56298;49.246;9.410;2022-12-07T07:35:08;99459.72;;;3.94
69186;BMP280;56298;49.246;9.410;2022-12-07T07:37:33;99462.84;;;4.01
69186;BMP280;56298;49.246;9.410;2022-12-07T07:39:59;99453.00;;;4.05
69186;BMP280;56298;49.246;9.410;2022-12-07T07:42:24;99458.91;;;4.07
69186;BMP280;56298;49.246;9.410;2022-12-07T07:44:49;99455.28;;;4.12
69186;BMP280;56298;49.246;9.410;2022-12-07T07:47:14;99451.66;;;4.17
69186;BMP280;56298;49.246;9.410;2022-12-07T07:49:40;99467.13;;;4.16
69186;BMP280;56298;49.246;9.410;2022-12-07T07:52:06;99462.78;;;4.29
69186;BMP280;56298;49.246;9.410;2022-12-07T07:54:31;99465.00;;;4.27
69186;BMP280;56298;49.246;9.410;2022-12-07T07:56:56;99470.94;;;4.29
69186;BMP280;56298;49.246;9.410;2022-12-07T07:59:22;99467.50;;;4.37
69186;BMP280;56298;49.246;9.410;2022-12-07T08:01:47;99471.50;;;4.40
69186;BMP280;56298;49.246;9.410;2022-12-07T08:04:13;99481.78;;;4.43
69186;BMP280;56298;49.246;9.410;2022-12-07T08:06:38;99484.94;;;4.59
69186;BMP280;56298;49.246;9.410;2022-12-07T08:09:03;99481.72;;;4.57
69186;BMP280;56298;49.246;9.410;2022-12-07T08:11:30;99492.09;;;4.55
69186;BMP280;56298;49.246;9.410;2022-12-07T08:13:56;99490.66;;;4.58
69186;BMP280;56298;49.246;9.410;2022-12-07T08:16:21;99481.31;;;4.64
69186;BMP280;56298;49.246;9.410;2022-12-07T08:18:46;99488.06;;;4.66
69186;BMP280;56298;49.246;9.410;2022-12-07T08:21:13;99494.38;;;4.62
69186;BMP280;56298;49.246;9.410;2022-12-07T08:23:39;99492.66;;;4.66
69186;BMP280;56298;49.246;9.410;2022-12-07T08:26:11;99490.84;;;4.61
69186;BMP280;56298;49.246;9.410;2022-12-07T08:28:37;99496.63;;;4.60
69186;BMP280;56298;49.246;9.410;2022-12-07T08:31:08;99493.09;;;4.22
69186;BMP280;56298;49.246;9.410;2022-12-07T08:33:34;99497.50;;;4.18
69186;BMP280;56298;49.246;9.410;2022-12-07T08:36:05;99497.75;;;4.31
69186;BMP280;56298;49.246;9.410;2022-12-07T08:38:31;99499.59;;;4.21
69186;BMP280;56298;49.246;9.410;2022-12-07T08:40:57;99490.13;;;4.33
69186;BMP280;56298;49.246;9.410;2022-12-07T08:43:23;99496.16;;;4.30
69186;BMP280;56298;49.246;9.410;2022-12-07T08:45:56;99494.16;;;4.35
69186;BMP280;56298;49.246;9.410;2022-12-07T08:48:27;99491.31;;;4.41
69186;BMP280;56298;49.246;9.410;2022-12-07T08:50:53;99486.47;;;4.51
69186;BMP280;56298;49.246;9.410;2022-12-07T08:53:18;99493.78;;;4.51
69186;BMP280;56298;49.246;9.410;2022-12-07T08:55:45;99498.03;;;4.57
69186;BMP280;56298;49.246;9.410;2022-12-07T08:58:11;99490.47;;;4.54
69186;BMP280;56298;49.246;9.410;2022-12-07T09:00:36;99492.28;;;4.59
69186;BMP280;56298;49.246;9.410;2022-12-07T09:03:01;99494.09;;;4.63
69186;BMP280;56298;49.246;9.410;2022-12-07T09:08:00;99494.25;;;4.67
69186;BMP280;56298;49.246;9.410;2022-12-07T09:10:26;99494.94;;;4.73
69186;BMP280;56298;49.246;9.410;2022-12-07T09:12:51;99494.88;;;4.87
69186;BMP280;56298;49.246;9.410;2022-12-07T09:15:17;99487.53;;;5.10
69186;BMP280;56298;49.246;9.410;2022-12-07T09:17:42;99492.03;;;5.15
69186;BMP280;56298;49.246;9.410;2022-12-07T09:20:07;99491.38;;;5.09
69186;BMP280;56298;49.246;9.410;2022-12-07T09:22:33;99492.72;;;5.20
69186;BMP280;56298;49.246;9.410;2022-12-07T09:24:59;99493.22;;;5.23
69186;BMP280;56298;49.246;9.410;2022-12-07T09:27:25;99489.84;;;5.26
69186;BMP280;56298;49.246;9.410;2022-12-07T09:29:50;99474.41;;;5.35
69186;BMP280;56298;49.246;9.410;2022-12-07T09:32:15;99480.06;;;5.47
69186;BMP280;56298;49.246;9.410;2022-12-07T09:34:40;99481.13;;;5.38
69186;BMP280;56298;49.246;9.410;2022-12-07T09:37:06;99487.38;;;5.38
69186;BMP280;56298;49.246;9.410;2022-12-07T09:39:31;99489.81;;;5.48
69186;BMP280;56298;49.246;9.410;2022-12-07T09:41:57;99497.56;;;5.64
69186;BMP280;56298;49.246;9.410;2022-12-07T09:44:25;99496.84;;;5.50
69186;BMP280;56298;49.246;9.410;2022-12-07T09:46:50;99488.31;;;5.65
69186;BMP280;56298;49.246;9.410;2022-12-07T09:49:19;99488.91;;;5.53
69186;BMP280;56298;49.246;9.410;2022-12-07T09:51:46;99488.91;;;5.53
69186;BMP280;56298;49.246;9.410;2022-12-07T09:54:16;99487.94;;;5.58
69186;BMP280;56298;49.246;9.410;2022-12-07T09:56:44;99481.66;;;5.48
69186;BMP280;56298;49.246;9.410;2022-12-07T09:59:13;99485.50;;;5.56
69186;BMP280;56298;49.246;9.410;2022-12-07T10:01:48;99484.25;;;5.54
69186;BMP280;56298;49.246;9.410;2022-12-07T10:04:18;99478.13;;;5.48
69186;BMP280;56298;49.246;9.410;2022-12-07T10:06:46;99473.97;;;5.51
69186;BMP280;56298;49.246;9.410;2022-12-07T10:09:14;99473.31;;;5.45
69186;BMP280;56298;49.246;9.410;2022-12-07T10:12:10;99478.38;;;5.29
69186;BMP280;56298;49.246;9.410;2022-12-07T10:14:38;99478.97;;;5.26
69186;BMP280;56298;49.246;9.410;2022-12-07T10:17:33;99474.19;;;5.23
69186;BMP280;56298;49.246;9.410;2022-12-07T10:20:20;99464.09;;;5.23
69186;BMP280;56298;49.246;9.410;2022-12-07T10:23:03;99469.50;;;5.14
69186;BMP280;56298;49.246;9.410;2022-12-07T10:25:36;99471.72;;;5.12
69186;BMP280;56298;49.246;9.410;2022-12-07T10:30:33;99465.56;;;5.29
69186;BMP280;56298;49.246;9.410;2022-12-07T10:35:56;99454.09;;;5.41
69186;BMP280;56298;49.246;9.410;2022-12-07T10:38:21;99453.28;;;5.32
69186;BMP280;56298;49.246;9.410;2022-12-07T10:40:46;99446.72;;;5.33
69186;BMP280;56298;49.246;9.410;2022-12-07T10:49:38;99442.41;;;5.32
69186;BMP280;56298;49.246;9.410;2022-12-07T10:57:54;99436.38;;;5.44
69186;BMP280;56298;49.246;9.410;2022-12-07T11:00:26;99435.44;;;5.57
69186;BMP280;56298;49.246;9.410;2022-12-07T11:05:52;99425.50;;;5.44
69186;BMP280;56298;49.246;9.410;2022-12-07T11:08:56;99433.38;;;5.54
69186;BMP280;56298;49.246;9.410;2022-12-07T11:11:46;99433.38;;;5.54
69186;BMP280;56298;49.246;9.410;2022-12-07T11:14:26;99421.22;;;5.52
69186;BMP280;56298;49.246;9.410;2022-12-07T11:17:00;99426.47;;;5.57
69186;BMP280;56298;49.246;9.410;2022-12-07T11:19:49;99426.47;;;5.57
69186;BMP280;56298;49.246;9.410;2022-12-07T11:25:13;99419.69;;;5.86
69186;BMP280;56298;49.246;9.410;2022-12-07T11:27:57;99418.56;;;5.87
69186;BMP280;56298;49.246;9.410;2022-12-07T11:30:57;99422.56;;;5.81
69186;BMP280;56298;49.246;9.410;2022-12-07T11:33:27;99409.94;;;5.85
69186;BMP280;56298;49.246;9.410;2022-12-07T11:36:03;99412.94;;;5.92
69186;BMP280;56298;49.246;9.410;2022-12-07T11:38:57;99403.81;;;5.88
69186;BMP280;56298;49.246;9.410;2022-12-07T11:41:31;99400.00;;;5.98
69186;BMP280;56298;49.246;9.410;2022-12-07T11:46:28;99402.25;;;5.87
69186;BMP280;56298;49.246;9.410;2022-12-07T11:48:57;99400.78;;;5.89
69186;BMP280;56298;49.246;9.410;2022-12-07T11:51:25;99391.19;;;5.92
69186;BMP280;56298;49.246;9.410;2022-12-07T11:53:59;99385.75;;;5.92
69186;BMP280;56298;49.246;9.410;2022-12-07T11:56:27;99383.19;;;5.87
69186;BMP280;56298;49.246;9.410;2022-12-07T11:59:06;99388.28;;;5.88
69186;BMP280;56298;49.246;9.410;2022-12-07T12:04:20;99384.16;;;5.82
69186;BMP280;56298;49.246;9.410;2022-12-07T12:06:48;99371.97;;;5.80
69186;BMP280;56298;49.246;9.410;2022-12-07T12:09:25;99383.84;;;5.84
69186;BMP280;56298;49.246;9.410;2022-12-07T12:23:00;99365.06;;;5.73
69186;BMP280;56298;49.246;9.410;2022-12-07T12:25:29;99366.53;;;5.71
69186;BMP280;56298;49.246;9.410;2022-12-07T12:27:58;99361.22;;;5.66
69186;BMP280;56298;49.246;9.410;2022-12-07T12:30:36;99358.97;;;5.50
69186;BMP280;56298;49.246;9.410;2022-12-07T12:33:27;99361.00;;;5.44
69186;BMP280;56298;49.246;9.410;2022-12-07T12:44:03;99359.31;;;5.75
69186;BMP280;56298;49.246;9.410;2022-12-07T12:48:54;99347.50;;;5.80
69186;BMP280;56298;49.246;9.410;2022-12-07T12:51:37;99353.91;;;5.84
69186;BMP280;56298;49.246;9.410;2022-12-07T12:54:05;99346.53;;;5.75
69186;BMP280;56298;49.246;9.410;2022-12-07T12:56:59;99353.06;;;5.92
69186;BMP280;56298;49.246;9.410;2022-12-07T12:59:36;99352.59;;;5.81
69186;BMP280;56298;49.246;9.410;2022-12-07T13:02:36;99343.16;;;5.87
69186;BMP280;56298;49.246;9.410;2022-12-07T13:10:42;99342.19;;;6.10
69186;BMP280;56298;49.246;9.410;2022-12-07T13:15:40;99336.75;;;6.10
69186;BMP280;56298;49.246;9.410;2022-12-07T13:20:43;99321.34;;;6.32
69186;BMP280;56298;49.246;9.410;2022-12-07T13:23:09;99328.25;;;6.20
69186;BMP280;56298;49.246;9.410;2022-12-07T13:25:45;99324.22;;;6.35
69186;BMP280;56298;49.246;9.410;2022-12-07T13:28:16;99320.09;;;6.29
69186;BMP280;56298;49.246;9.410;2022-12-07T13:30:46;99323.09;;;6.36
69186;BMP280;56298;49.246;9.410;2022-12-07T13:33:17;99321.03;;;6.33
69186;BMP280;56298;49.246;9.410;2022-12-07T13:35:43;99308.88;;;6.22
69186;BMP280;56298;49.246;9.410;2022-12-07T13:38:28;99310.66;;;6.26
69186;BMP280;56298;49.246;9.410;2022-12-07T13:41:15;99309.06;;;6.17
69186;BMP280;56298;49.246;9.410;2022-12-07T13:43:47;99311.94;;;6.11
69186;BMP280;56298;49.246;9.410;2022-12-07T13:46:13;99309.69;;;6.22
69186;BMP280;56298;49.246;9.410;2022-12-07T13:48:49;99309.50;;;6.19
69186;BMP280;56298;49.246;9.410;2022-12-07T13:53:54;99306.28;;;6.34
69186;BMP280;56298;49.246;9.410;2022-12-07T13:56:28;99313.84;;;6.28
69186;BMP280;56298;49.246;9.410;2022-12-07T13:58:56;99311.28;;;6.23
69186;BMP280;56298;49.246;9.410;2022-12-07T14:01:22;99308.09;;;6.12
69186;BMP280;56298;49.246;9.410;2022-12-07T14:03:47;99304.91;;;6.10
69186;BMP280;56298;49.246;9.410;2022-12-07T14:06:22;99311.44;;;6.18
69186;BMP280;56298;49.246;9.410;2022-12-07T14:08:50;99310.66;;;6.09
69186;BMP280;56298;49.246;9.410;2022-12-07T14:11:19;99305.53;;;6.07
69186;BMP280;56298;49.246;9.410;2022-12-07T14:14:03;99311.16;;;5.93
69186;BMP280;56298;49.246;9.410;2022-12-07T14:16:35;99320.47;;;6.01
69186;BMP280;56298;49.246;9.410;2022-12-07T14:19:06;99316.25;;;6.04
69186;BMP280;56298;49.246;9.410;2022-12-07T14:22:06;99318.69;;;6.05
69186;BMP280;56298;49.246;9.410;2022-12-07T14:24:41;99322.50;;;6.04
69186;BMP280;56298;49.246;9.410;2022-12-07T14:27:22;99324.13;;;5.96
69186;BMP280;56298;49.246;9.410;2022-12-07T14:29:50;99315.94;;;5.96
69186;BMP280;56298;49.246;9.410;2022-12-07T14:32:18;99320.28;;;5.88
69186;BMP280;56298;49.246;9.410;2022-12-07T14:34:55;99318.03;;;5.99
69186;BMP280;56298;49.246;9.410;2022-12-07T14:37:21;99318.97;;;5.95
69186;BMP280;56298;49.246;9.410;2022-12-07T14:39:46;99312.75;;;5.85
69186;BMP280;56298;49.246;9.410;2022-12-07T14:42:11;99309.06;;;5.72
69186;BMP280;56298;49.246;9.410;2022-12-07T14:44:36;99315.16;;;5.78
69186;BMP280;56298;49.246;9.410;2022-12-07T14:47:02;99318.03;;;5.82
69186;BMP280;56298;49.246;9.410;2022-12-07T14:49:27;99307.47;;;5.71
69186;BMP280;56298;49.246;9.410;2022-12-07T14:51:52;99298.97;;;5.64
69186;BMP280;56298;49.246;9.410;2022-12-07T14:54:20;99305.06;;;5.61
69186;BMP280;56298;49.246;9.410;2022-12-07T14:56:47;99297.19;;;5.51
69186;BMP280;56298;49.246;9.410;2022-12-07T14:59:16;99290.94;;;5.41
69186;BMP280;56298;49.246;9.410;2022-12-07T15:01:42;99294.00;;;5.48
69186;BMP280;56298;49.246;9.410;2022-12-07T15:04:07;99294.78;;;5.40
69186;BMP280;56298;49.246;9.410;2022-12-07T15:06:32;99302.16;;;5.40
69186;BMP280;56298;49.246;9.410;2022-12-07T15:08:58;99296.72;;;5.48
69186;BMP280;56298;49.246;9.410;2022-12-07T15:11:23;99304.53;;;5.41
69186;BMP280;56298;49.246;9.410;2022-12-07T15:13:48;99295.59;;;5.41
69186;BMP280;56298;49.246;9.410;2022-12-07T15:16:45;99304.88;;;5.48
69186;BMP280;56298;49.246;9.410;2022-12-07T15:19:19;99308.25;;;5.37
69186;BMP280;56298;49.246;9.410;2022-12-07T15:21:47;99311.91;;;5.32
69186;BMP280;56298;49.246;9.410;2022-12-07T15:24:13;99310.78;;;5.33
69186;BMP280;56298;49.246;9.410;2022-12-07T15:26:39;99298.31;;;5.32
69186;BMP280;56298;49.246;9.410;2022-12-07T15:29:05;99305.50;;;5.28
69186;BMP280;56298;49.246;9.410;2022-12-07T15:31:31;99295.09;;;5.30
69186;BMP280;56298;49.246;9.410;2022-12-07T15:33:57;99297.00;;;5.20
69186;BMP280;56298;49.246;9.410;2022-12-07T15:36:25;99308.03;;;5.24
69186;BMP280;56298;49.246;9.410;2022-12-07T15:38:51;99297.47;;;5.23
69186;BMP280;56298;49.246;9.410;2022-12-07T15:41:16;99301.97;;;5.18
69186;BMP280;56298;49.246;9.410;2022-12-07T15:43:42;99296.19;;;5.20
69186;BMP280;56298;49.246;9.410;2022-12-07T15:46:30;99288.06;;;5.29
69186;BMP280;56298;49.246;9.410;2022-12-07T15:48:56;99285.81;;;5.22
69186;BMP280;56298;49.246;9.410;2022-12-07T15:51:21;99288.84;;;5.20
69186;BMP280;56298;49.246;9.410;2022-12-07T15:53:46;99285.19;;;5.25
69186;BMP280;56298;49.246;9.410;2022-12-07T15:56:11;99284.84;;;5.18